sensor_id;sensor_type;location;lat;lon;timestamp;P1;durP1;ratioP1;P2;durP2;ratioP2
37303;SDS011;23188;51.188;16.374;2023-05-29T00:01:51;7.90;;;5.40;;
37303;SDS011;23188;51.188;16.374;2023-05-29T00:05:54;7.70;;;4.40;;
37303;SDS011;23188;51.188;16.374;2023-05-29T00:09:58;8.40;;;5.00;;
37303;SDS011;23188;51.188;16.374;2023-05-29T00:18:29;7.50;;;6.10;;
37303;SDS011;23188;51.188;16.374;2023-05-29T00:22:37;7.50;;;5.20;;
37303;SDS011;23188;51.188;16.374;2023-05-29T00:26:40;13.20;;;6.80;;
37303;SDS011;23188;51.188;16.374;2023-05-29T00:30:43;10.80;;;5.70;;
37303;SDS011;23188;51.188;16.374;2023-05-29T00:34:48;7.90;;;4.90;;
37303;SDS011;23188;51.188;16.374;2023-05-29T00:42:55;10.40;;;6.70;;
37303;SDS011;23188;51.188;16.374;2023-05-29T00:46:58;8.20;;;5.80;;
37303;SDS011;23188;51.188;16.374;2023-05-29T00:55:30;6.50;;;4.20;;
37303;SDS011;23188;51.188;16.374;2023-05-29T00:59:33;6.60;;;5.30;;
37303;SDS011;23188;51.188;16.374;2023-05-29T01:03:40;11.90;;;6.10;;
37303;SDS011;23188;51.188;16.374;2023-05-29T01:07:44;15.20;;;7.10;;
37303;SDS011;23188;51.188;16.374;2023-05-29T01:16:12;17.20;;;6.90;;
37303;SDS011;23188;51.188;16.374;2023-05-29T01:20:52;10.40;;;6.80;;
37303;SDS011;23188;51.188;16.374;2023-05-29T01:25:23;10.70;;;8.10;;
37303;SDS011;23188;51.188;16.374;2023-05-29T01:29:31;9.00;;;6.10;;
37303;SDS011;23188;51.188;16.374;2023-05-29T01:37:43;10.00;;;5.70;;
37303;SDS011;23188;51.188;16.374;2023-05-29T01:41:45;17.80;;;5.90;;
37303;SDS011;23188;51.188;16.374;2023-05-29T01:45:50;7.60;;;5.40;;
37303;SDS011;23188;51.188;16.374;2023-05-29T01:49:52;9.20;;;6.00;;
37303;SDS011;23188;51.188;16.374;2023-05-29T01:53:57;8.00;;;5.40;;
37303;SDS011;23188;51.188;16.374;2023-05-29T02:04:26;6.30;;;4.90;;
37303;SDS011;23188;51.188;16.374;2023-05-29T02:08:30;8.30;;;4.40;;
37303;SDS011;23188;51.188;16.374;2023-05-29T02:12:33;9.30;;;4.50;;
37303;SDS011;23188;51.188;16.374;2023-05-29T02:16:35;9.10;;;6.40;;
37303;SDS011;23188;51.188;16.374;2023-05-29T02:20:38;8.90;;;5.70;;
37303;SDS011;23188;51.188;16.374;2023-05-29T02:24:42;8.40;;;6.00;;
37303;SDS011;23188;51.188;16.374;2023-05-29T02:33:41;8.20;;;5.40;;
37303;SDS011;23188;51.188;16.374;2023-05-29T02:37:49;7.60;;;5.70;;
37303;SDS011;23188;51.188;16.374;2023-05-29T02:41:53;9.70;;;4.80;;
37303;SDS011;23188;51.188;16.374;2023-05-29T02:46:01;11.30;;;4.70;;
37303;SDS011;23188;51.188;16.374;2023-05-29T02:54:59;10.40;;;5.50;;
37303;SDS011;23188;51.188;16.374;2023-05-29T02:59:02;25.60;;;7.40;;
37303;SDS011;23188;51.188;16.374;2023-05-29T03:03:05;8.50;;;4.50;;
37303;SDS011;23188;51.188;16.374;2023-05-29T03:07:08;15.50;;;5.70;;
37303;SDS011;23188;51.188;16.374;2023-05-29T03:16:18;11.80;;;4.70;;
37303;SDS011;23188;51.188;16.374;2023-05-29T03:20:24;22.40;;;5.90;;
37303;SDS011;23188;51.188;16.374;2023-05-29T03:24:26;17.10;;;7.60;;
37303;SDS011;23188;51.188;16.374;2023-05-29T03:28:39;18.20;;;6.50;;
37303;SDS011;23188;51.188;16.374;2023-05-29T03:32:42;8.00;;;5.10;;
37303;SDS011;23188;51.188;16.374;2023-05-29T03:36:46;9.20;;;6.30;;
37303;SDS011;23188;51.188;16.374;2023-05-29T03:45:43;7.50;;;4.70;;
37303;SDS011;23188;51.188;16.374;2023-05-29T03:49:54;12.40;;;5.80;;
37303;SDS011;23188;51.188;16.374;2023-05-29T03:53:58;16.40;;;5.40;;
37303;SDS011;23188;51.188;16.374;2023-05-29T03:58:01;11.60;;;5.60;;
37303;SDS011;23188;51.188;16.374;2023-05-29T04:02:07;10.00;;;5.30;;
37303;SDS011;23188;51.188;16.374;2023-05-29T04:06:10;9.40;;;5.50;;
37303;SDS011;23188;51.188;16.374;2023-05-29T04:10:14;12.30;;;7.30;;
37303;SDS011;23188;51.188;16.374;2023-05-29T04:14:18;13.70;;;7.20;;
37303;SDS011;23188;51.188;16.374;2023-05-29T04:18:24;9.40;;;7.20;;
37303;SDS011;23188;51.188;16.374;2023-05-29T04:22:29;9.20;;;7.30;;
37303;SDS011;23188;51.188;16.374;2023-05-29T04:31:36;26.30;;;9.20;;
37303;SDS011;23188;51.188;16.374;2023-05-29T04:35:41;12.40;;;6.60;;
37303;SDS011;23188;51.188;16.374;2023-05-29T04:39:48;11.20;;;6.70;;
37303;SDS011;23188;51.188;16.374;2023-05-29T04:43:51;8.20;;;5.90;;
37303;SDS011;23188;51.188;16.374;2023-05-29T04:47:54;10.80;;;6.80;;
37303;SDS011;23188;51.188;16.374;2023-05-29T04:51:58;7.90;;;5.40;;
37303;SDS011;23188;51.188;16.374;2023-05-29T05:05:28;12.30;;;5.60;;
37303;SDS011;23188;51.188;16.374;2023-05-29T05:09:31;9.40;;;5.30;;
37303;SDS011;23188;51.188;16.374;2023-05-29T05:13:34;7.80;;;4.60;;
37303;SDS011;23188;51.188;16.374;2023-05-29T05:17:37;8.00;;;4.40;;
37303;SDS011;23188;51.188;16.374;2023-05-29T05:21:40;11.90;;;5.40;;
37303;SDS011;23188;51.188;16.374;2023-05-29T05:25:44;11.30;;;6.20;;
37303;SDS011;23188;51.188;16.374;2023-05-29T05:29:47;9.30;;;5.30;;
37303;SDS011;23188;51.188;16.374;2023-05-29T05:33:50;8.10;;;5.50;;
37303;SDS011;23188;51.188;16.374;2023-05-29T05:37:53;7.60;;;5.60;;
37303;SDS011;23188;51.188;16.374;2023-05-29T05:41:56;7.80;;;6.10;;
37303;SDS011;23188;51.188;16.374;2023-05-29T05:45:59;10.80;;;7.40;;
37303;SDS011;23188;51.188;16.374;2023-05-29T05:50:03;10.40;;;6.40;;
37303;SDS011;23188;51.188;16.374;2023-05-29T05:54:11;9.30;;;6.30;;
37303;SDS011;23188;51.188;16.374;2023-05-29T05:58:14;15.60;;;7.80;;
37303;SDS011;23188;51.188;16.374;2023-05-29T06:02:18;10.50;;;6.50;;
37303;SDS011;23188;51.188;16.374;2023-05-29T06:06:21;8.30;;;6.30;;
37303;SDS011;23188;51.188;16.374;2023-05-29T06:10:24;7.60;;;6.10;;
37303;SDS011;23188;51.188;16.374;2023-05-29T06:14:27;11.80;;;5.20;;
37303;SDS011;23188;51.188;16.374;2023-05-29T06:18:30;6.60;;;4.30;;
37303;SDS011;23188;51.188;16.374;2023-05-29T06:22:33;6.80;;;5.20;;
37303;SDS011;23188;51.188;16.374;2023-05-29T06:26:36;12.10;;;5.80;;
37303;SDS011;23188;51.188;16.374;2023-05-29T06:30:40;11.60;;;5.40;;
37303;SDS011;23188;51.188;16.374;2023-05-29T06:34:44;6.80;;;6.00;;
37303;SDS011;23188;51.188;16.374;2023-05-29T06:38:47;18.50;;;6.20;;
37303;SDS011;23188;51.188;16.374;2023-05-29T06:42:55;9.90;;;6.40;;
37303;SDS011;23188;51.188;16.374;2023-05-29T06:46:58;7.30;;;4.90;;
37303;SDS011;23188;51.188;16.374;2023-05-29T06:51:02;9.60;;;5.20;;
37303;SDS011;23188;51.188;16.374;2023-05-29T06:55:14;7.80;;;4.20;;
37303;SDS011;23188;51.188;16.374;2023-05-29T06:59:17;10.30;;;5.80;;
37303;SDS011;23188;51.188;16.374;2023-05-29T07:03:20;7.50;;;5.10;;
37303;SDS011;23188;51.188;16.374;2023-05-29T07:07:24;6.40;;;4.00;;
37303;SDS011;23188;51.188;16.374;2023-05-29T07:11:27;13.20;;;6.20;;
37303;SDS011;23188;51.188;16.374;2023-05-29T07:15:30;10.60;;;5.10;;
37303;SDS011;23188;51.188;16.374;2023-05-29T07:19:33;9.30;;;4.10;;
37303;SDS011;23188;51.188;16.374;2023-05-29T07:23:36;6.40;;;4.30;;
37303;SDS011;23188;51.188;16.374;2023-05-29T07:32:24;7.80;;;4.50;;
37303;SDS011;23188;51.188;16.374;2023-05-29T07:36:29;17.50;;;5.10;;
37303;SDS011;23188;51.188;16.374;2023-05-29T07:40:36;6.80;;;4.10;;
37303;SDS011;23188;51.188;16.374;2023-05-29T07:44:42;8.70;;;4.10;;
37303;SDS011;23188;51.188;16.374;2023-05-29T07:48:45;6.80;;;3.30;;
37303;SDS011;23188;51.188;16.374;2023-05-29T07:52:51;7.00;;;3.40;;
37303;SDS011;23188;51.188;16.374;2023-05-29T07:56:56;5.30;;;3.50;;
37303;SDS011;23188;51.188;16.374;2023-05-29T08:00:59;7.50;;;4.40;;
37303;SDS011;23188;51.188;16.374;2023-05-29T08:05:02;5.60;;;3.70;;
37303;SDS011;23188;51.188;16.374;2023-05-29T08:09:06;5.90;;;2.60;;
37303;SDS011;23188;51.188;16.374;2023-05-29T08:13:09;10.80;;;4.00;;
37303;SDS011;23188;51.188;16.374;2023-05-29T08:17:12;4.70;;;3.10;;
37303;SDS011;23188;51.188;16.374;2023-05-29T08:21:20;5.70;;;3.20;;
37303;SDS011;23188;51.188;16.374;2023-05-29T08:25:24;8.10;;;3.60;;
37303;SDS011;23188;51.188;16.374;2023-05-29T08:29:26;5.30;;;2.70;;
37303;SDS011;23188;51.188;16.374;2023-05-29T08:33:29;6.40;;;2.90;;
37303;SDS011;23188;51.188;16.374;2023-05-29T08:37:33;5.00;;;3.50;;
37303;SDS011;23188;51.188;16.374;2023-05-29T08:46:02;5.90;;;2.50;;
37303;SDS011;23188;51.188;16.374;2023-05-29T08:50:08;4.60;;;2.30;;
37303;SDS011;23188;51.188;16.374;2023-05-29T08:54:12;5.90;;;3.10;;
37303;SDS011;23188;51.188;16.374;2023-05-29T09:02:25;1.80;;;1.40;;
37303;SDS011;23188;51.188;16.374;2023-05-29T09:06:30;7.10;;;1.80;;
37303;SDS011;23188;51.188;16.374;2023-05-29T09:10:33;8.30;;;2.80;;
37303;SDS011;23188;51.188;16.374;2023-05-29T09:14:41;6.20;;;1.60;;
37303;SDS011;23188;51.188;16.374;2023-05-29T09:18:45;3.70;;;1.60;;
37303;SDS011;23188;51.188;16.374;2023-05-29T09:22:57;3.20;;;1.40;;
37303;SDS011;23188;51.188;16.374;2023-05-29T09:27:02;8.90;;;1.60;;
37303;SDS011;23188;51.188;16.374;2023-05-29T09:31:15;5.30;;;2.00;;
37303;SDS011;23188;51.188;16.374;2023-05-29T09:35:23;2.10;;;1.20;;
37303;SDS011;23188;51.188;16.374;2023-05-29T09:39:26;2.30;;;1.10;;
37303;SDS011;23188;51.188;16.374;2023-05-29T09:43:30;2.80;;;1.60;;
37303;SDS011;23188;51.188;16.374;2023-05-29T09:47:37;3.30;;;1.00;;
37303;SDS011;23188;51.188;16.374;2023-05-29T09:51:42;3.40;;;1.50;;
37303;SDS011;23188;51.188;16.374;2023-05-29T09:55:51;2.50;;;1.30;;
37303;SDS011;23188;51.188;16.374;2023-05-29T10:03:59;2.10;;;1.70;;
37303;SDS011;23188;51.188;16.374;2023-05-29T10:08:03;3.70;;;1.60;;
37303;SDS011;23188;51.188;16.374;2023-05-29T10:12:12;4.30;;;1.40;;
37303;SDS011;23188;51.188;16.374;2023-05-29T10:16:21;4.20;;;2.00;;
37303;SDS011;23188;51.188;16.374;2023-05-29T10:20:27;3.60;;;1.70;;
37303;SDS011;23188;51.188;16.374;2023-05-29T10:24:32;5.40;;;1.80;;
37303;SDS011;23188;51.188;16.374;2023-05-29T10:28:37;2.90;;;1.60;;
37303;SDS011;23188;51.188;16.374;2023-05-29T10:32:56;3.90;;;2.00;;
37303;SDS011;23188;51.188;16.374;2023-05-29T10:37:12;3.70;;;2.10;;
37303;SDS011;23188;51.188;16.374;2023-05-29T10:41:35;1.50;;;1.20;;
37303;SDS011;23188;51.188;16.374;2023-05-29T10:49:49;2.50;;;1.70;;
37303;SDS011;23188;51.188;16.374;2023-05-29T10:53:56;3.60;;;1.40;;
37303;SDS011;23188;51.188;16.374;2023-05-29T10:58:04;3.00;;;2.10;;
37303;SDS011;23188;51.188;16.374;2023-05-29T11:02:08;2.90;;;1.30;;
37303;SDS011;23188;51.188;16.374;2023-05-29T11:06:20;2.90;;;1.90;;
37303;SDS011;23188;51.188;16.374;2023-05-29T11:10:55;3.70;;;1.90;;
37303;SDS011;23188;51.188;16.374;2023-05-29T11:15:04;5.60;;;2.50;;
37303;SDS011;23188;51.188;16.374;2023-05-29T11:19:09;2.60;;;1.50;;
37303;SDS011;23188;51.188;16.374;2023-05-29T11:23:17;3.70;;;2.20;;
37303;SDS011;23188;51.188;16.374;2023-05-29T11:27:21;5.20;;;1.80;;
37303;SDS011;23188;51.188;16.374;2023-05-29T11:31:28;2.10;;;1.30;;
37303;SDS011;23188;51.188;16.374;2023-05-29T11:35:34;4.50;;;2.60;;
37303;SDS011;23188;51.188;16.374;2023-05-29T11:39:41;3.10;;;1.70;;
37303;SDS011;23188;51.188;16.374;2023-05-29T11:43:55;3.00;;;1.30;;
37303;SDS011;23188;51.188;16.374;2023-05-29T11:48:04;2.80;;;2.20;;
37303;SDS011;23188;51.188;16.374;2023-05-29T11:52:09;2.70;;;1.70;;
37303;SDS011;23188;51.188;16.374;2023-05-29T11:56:16;5.00;;;2.40;;
37303;SDS011;23188;51.188;16.374;2023-05-29T12:00:20;2.80;;;2.30;;
37303;SDS011;23188;51.188;16.374;2023-05-29T12:04:24;2.70;;;1.90;;
37303;SDS011;23188;51.188;16.374;2023-05-29T12:08:28;5.10;;;2.30;;
37303;SDS011;23188;51.188;16.374;2023-05-29T12:12:31;3.60;;;2.70;;
37303;SDS011;23188;51.188;16.374;2023-05-29T12:16:34;2.80;;;1.80;;
37303;SDS011;23188;51.188;16.374;2023-05-29T12:20:38;4.60;;;2.00;;
37303;SDS011;23188;51.188;16.374;2023-05-29T12:24:42;4.10;;;2.60;;
37303;SDS011;23188;51.188;16.374;2023-05-29T12:28:46;6.60;;;2.20;;
37303;SDS011;23188;51.188;16.374;2023-05-29T12:32:50;4.50;;;1.70;;
37303;SDS011;23188;51.188;16.374;2023-05-29T12:37:03;4.10;;;2.20;;
37303;SDS011;23188;51.188;16.374;2023-05-29T12:41:24;4.70;;;2.40;;
37303;SDS011;23188;51.188;16.374;2023-05-29T12:45:33;2.50;;;1.80;;
37303;SDS011;23188;51.188;16.374;2023-05-29T12:49:36;3.00;;;1.90;;
37303;SDS011;23188;51.188;16.374;2023-05-29T12:53:40;4.60;;;1.80;;
37303;SDS011;23188;51.188;16.374;2023-05-29T12:57:43;5.90;;;3.30;;
37303;SDS011;23188;51.188;16.374;2023-05-29T13:01:52;3.00;;;2.10;;
37303;SDS011;23188;51.188;16.374;2023-05-29T13:05:58;5.00;;;2.20;;
37303;SDS011;23188;51.188;16.374;2023-05-29T13:10:01;7.60;;;2.30;;
37303;SDS011;23188;51.188;16.374;2023-05-29T13:14:04;9.90;;;2.00;;
37303;SDS011;23188;51.188;16.374;2023-05-29T13:18:08;3.80;;;3.00;;
37303;SDS011;23188;51.188;16.374;2023-05-29T13:22:11;5.00;;;2.70;;
37303;SDS011;23188;51.188;16.374;2023-05-29T13:26:15;4.20;;;2.40;;
37303;SDS011;23188;51.188;16.374;2023-05-29T13:30:19;4.20;;;2.70;;
37303;SDS011;23188;51.188;16.374;2023-05-29T13:34:23;3.30;;;2.20;;
37303;SDS011;23188;51.188;16.374;2023-05-29T13:38:31;3.00;;;2.30;;
37303;SDS011;23188;51.188;16.374;2023-05-29T13:42:40;4.50;;;2.30;;
37303;SDS011;23188;51.188;16.374;2023-05-29T13:46:44;3.80;;;2.40;;
37303;SDS011;23188;51.188;16.374;2023-05-29T13:55:26;4.50;;;2.80;;
37303;SDS011;23188;51.188;16.374;2023-05-29T13:59:31;5.10;;;2.70;;
37303;SDS011;23188;51.188;16.374;2023-05-29T14:03:38;5.40;;;2.90;;
37303;SDS011;23188;51.188;16.374;2023-05-29T14:07:47;4.80;;;3.30;;
37303;SDS011;23188;51.188;16.374;2023-05-29T14:11:51;5.00;;;3.00;;
37303;SDS011;23188;51.188;16.374;2023-05-29T14:15:57;8.80;;;3.70;;
37303;SDS011;23188;51.188;16.374;2023-05-29T14:20:02;6.80;;;2.80;;
37303;SDS011;23188;51.188;16.374;2023-05-29T14:24:15;3.70;;;2.80;;
37303;SDS011;23188;51.188;16.374;2023-05-29T14:28:21;4.30;;;3.40;;
37303;SDS011;23188;51.188;16.374;2023-05-29T14:32:30;4.40;;;3.30;;
37303;SDS011;23188;51.188;16.374;2023-05-29T14:36:35;6.30;;;2.60;;
37303;SDS011;23188;51.188;16.374;2023-05-29T14:40:40;10.40;;;3.40;;
37303;SDS011;23188;51.188;16.374;2023-05-29T14:44:44;5.10;;;3.50;;
37303;SDS011;23188;51.188;16.374;2023-05-29T14:48:48;3.70;;;3.20;;
37303;SDS011;23188;51.188;16.374;2023-05-29T14:52:52;9.50;;;4.00;;
37303;SDS011;23188;51.188;16.374;2023-05-29T14:56:58;6.30;;;4.10;;
37303;SDS011;23188;51.188;16.374;2023-05-29T15:01:02;5.20;;;3.50;;
37303;SDS011;23188;51.188;16.374;2023-05-29T15:05:06;3.50;;;2.90;;
37303;SDS011;23188;51.188;16.374;2023-05-29T15:09:10;4.70;;;3.00;;
37303;SDS011;23188;51.188;16.374;2023-05-29T15:13:16;5.70;;;2.90;;
37303;SDS011;23188;51.188;16.374;2023-05-29T15:17:22;5.40;;;3.00;;
37303;SDS011;23188;51.188;16.374;2023-05-29T15:21:26;3.80;;;2.90;;
37303;SDS011;23188;51.188;16.374;2023-05-29T15:25:30;5.50;;;2.90;;
37303;SDS011;23188;51.188;16.374;2023-05-29T15:29:34;5.60;;;4.20;;
37303;SDS011;23188;51.188;16.374;2023-05-29T15:33:39;3.20;;;2.80;;
37303;SDS011;23188;51.188;16.374;2023-05-29T15:37:43;3.00;;;2.70;;
37303;SDS011;23188;51.188;16.374;2023-05-29T15:41:47;4.20;;;3.00;;
37303;SDS011;23188;51.188;16.374;2023-05-29T15:45:51;3.40;;;2.90;;
37303;SDS011;23188;51.188;16.374;2023-05-29T15:49:55;4.60;;;3.10;;
37303;SDS011;23188;51.188;16.374;2023-05-29T15:54:04;3.70;;;2.60;;
37303;SDS011;23188;51.188;16.374;2023-05-29T15:58:07;3.70;;;2.70;;
37303;SDS011;23188;51.188;16.374;2023-05-29T16:02:11;4.90;;;2.50;;
37303;SDS011;23188;51.188;16.374;2023-05-29T16:06:15;6.00;;;3.40;;
37303;SDS011;23188;51.188;16.374;2023-05-29T16:10:19;4.90;;;2.60;;
37303;SDS011;23188;51.188;16.374;2023-05-29T16:14:22;4.70;;;3.30;;
37303;SDS011;23188;51.188;16.374;2023-05-29T16:18:26;4.30;;;3.90;;
37303;SDS011;23188;51.188;16.374;2023-05-29T16:22:30;7.00;;;2.60;;
37303;SDS011;23188;51.188;16.374;2023-05-29T16:26:44;5.40;;;3.50;;
37303;SDS011;23188;51.188;16.374;2023-05-29T16:30:48;3.10;;;2.40;;
37303;SDS011;23188;51.188;16.374;2023-05-29T16:34:51;8.20;;;3.30;;
37303;SDS011;23188;51.188;16.374;2023-05-29T16:38:57;7.70;;;3.70;;
37303;SDS011;23188;51.188;16.374;2023-05-29T16:43:01;4.50;;;3.20;;
37303;SDS011;23188;51.188;16.374;2023-05-29T16:47:05;3.90;;;3.30;;
37303;SDS011;23188;51.188;16.374;2023-05-29T16:51:09;6.50;;;3.40;;
37303;SDS011;23188;51.188;16.374;2023-05-29T16:55:14;4.00;;;3.50;;
37303;SDS011;23188;51.188;16.374;2023-05-29T16:59:19;13.70;;;4.90;;
37303;SDS011;23188;51.188;16.374;2023-05-29T17:03:24;4.00;;;2.70;;
37303;SDS011;23188;51.188;16.374;2023-05-29T17:07:28;5.10;;;3.10;;
37303;SDS011;23188;51.188;16.374;2023-05-29T17:11:33;6.30;;;3.50;;
37303;SDS011;23188;51.188;16.374;2023-05-29T17:15:37;3.90;;;3.20;;
37303;SDS011;23188;51.188;16.374;2023-05-29T17:19:40;8.20;;;3.90;;
37303;SDS011;23188;51.188;16.374;2023-05-29T17:23:44;12.10;;;4.00;;
37303;SDS011;23188;51.188;16.374;2023-05-29T17:27:48;4.20;;;2.80;;
37303;SDS011;23188;51.188;16.374;2023-05-29T17:31:52;4.90;;;3.30;;
37303;SDS011;23188;51.188;16.374;2023-05-29T17:35:56;5.80;;;3.40;;
37303;SDS011;23188;51.188;16.374;2023-05-29T17:40:00;7.00;;;3.40;;
37303;SDS011;23188;51.188;16.374;2023-05-29T17:44:03;5.10;;;3.00;;
37303;SDS011;23188;51.188;16.374;2023-05-29T17:48:07;3.60;;;2.70;;
37303;SDS011;23188;51.188;16.374;2023-05-29T17:52:11;4.80;;;3.70;;
37303;SDS011;23188;51.188;16.374;2023-05-29T17:56:15;5.80;;;3.00;;
37303;SDS011;23188;51.188;16.374;2023-05-29T18:00:19;10.10;;;3.70;;
37303;SDS011;23188;51.188;16.374;2023-05-29T18:04:22;12.20;;;3.80;;
37303;SDS011;23188;51.188;16.374;2023-05-29T18:08:25;8.30;;;3.40;;
37303;SDS011;23188;51.188;16.374;2023-05-29T18:12:29;7.90;;;4.10;;
37303;SDS011;23188;51.188;16.374;2023-05-29T18:16:47;4.10;;;3.70;;
37303;SDS011;23188;51.188;16.374;2023-05-29T18:20:51;4.70;;;4.10;;
37303;SDS011;23188;51.188;16.374;2023-05-29T18:24:54;5.60;;;3.70;;
37303;SDS011;23188;51.188;16.374;2023-05-29T18:28:58;11.20;;;4.10;;
37303;SDS011;23188;51.188;16.374;2023-05-29T18:33:03;5.90;;;3.80;;
37303;SDS011;23188;51.188;16.374;2023-05-29T18:37:07;6.30;;;3.50;;
37303;SDS011;23188;51.188;16.374;2023-05-29T18:41:11;11.00;;;3.70;;
37303;SDS011;23188;51.188;16.374;2023-05-29T18:45:14;6.90;;;3.70;;
37303;SDS011;23188;51.188;16.374;2023-05-29T18:49:18;5.60;;;4.60;;
37303;SDS011;23188;51.188;16.374;2023-05-29T18:53:22;4.80;;;4.00;;
37303;SDS011;23188;51.188;16.374;2023-05-29T18:57:27;6.80;;;4.30;;
37303;SDS011;23188;51.188;16.374;2023-05-29T19:01:30;8.70;;;4.80;;
37303;SDS011;23188;51.188;16.374;2023-05-29T19:05:35;6.40;;;4.20;;
37303;SDS011;23188;51.188;16.374;2023-05-29T19:09:39;7.70;;;4.40;;
37303;SDS011;23188;51.188;16.374;2023-05-29T19:13:44;5.90;;;3.10;;
37303;SDS011;23188;51.188;16.374;2023-05-29T19:17:50;5.00;;;3.60;;
37303;SDS011;23188;51.188;16.374;2023-05-29T19:21:54;4.20;;;3.80;;
37303;SDS011;23188;51.188;16.374;2023-05-29T19:25:57;4.30;;;3.20;;
37303;SDS011;23188;51.188;16.374;2023-05-29T19:30:00;6.50;;;4.60;;
37303;SDS011;23188;51.188;16.374;2023-05-29T19:34:04;6.10;;;3.70;;
37303;SDS011;23188;51.188;16.374;2023-05-29T19:38:33;7.10;;;4.80;;
37303;SDS011;23188;51.188;16.374;2023-05-29T19:42:37;7.20;;;4.40;;
37303;SDS011;23188;51.188;16.374;2023-05-29T19:46:40;9.30;;;4.90;;
37303;SDS011;23188;51.188;16.374;2023-05-29T19:50:51;6.80;;;4.20;;
37303;SDS011;23188;51.188;16.374;2023-05-29T19:54:54;7.20;;;5.00;;
37303;SDS011;23188;51.188;16.374;2023-05-29T19:58:58;5.70;;;4.00;;
37303;SDS011;23188;51.188;16.374;2023-05-29T20:03:01;9.60;;;5.10;;
37303;SDS011;23188;51.188;16.374;2023-05-29T20:07:06;6.30;;;4.50;;
37303;SDS011;23188;51.188;16.374;2023-05-29T20:11:10;9.10;;;5.60;;
37303;SDS011;23188;51.188;16.374;2023-05-29T20:15:13;9.10;;;5.40;;
37303;SDS011;23188;51.188;16.374;2023-05-29T20:19:17;9.20;;;5.50;;
37303;SDS011;23188;51.188;16.374;2023-05-29T20:23:21;8.70;;;5.90;;
37303;SDS011;23188;51.188;16.374;2023-05-29T20:27:25;5.60;;;4.80;;
37303;SDS011;23188;51.188;16.374;2023-05-29T20:31:35;6.80;;;4.60;;
37303;SDS011;23188;51.188;16.374;2023-05-29T20:58:30;9.50;;;4.90;;
37303;SDS011;23188;51.188;16.374;2023-05-29T21:02:35;4.20;;;3.20;;
37303;SDS011;23188;51.188;16.374;2023-05-29T21:06:38;7.00;;;4.40;;
37303;SDS011;23188;51.188;16.374;2023-05-29T21:10:41;6.40;;;5.40;;
37303;SDS011;23188;51.188;16.374;2023-05-29T21:14:45;8.00;;;4.90;;
37303;SDS011;23188;51.188;16.374;2023-05-29T21:18:48;8.50;;;4.50;;
37303;SDS011;23188;51.188;16.374;2023-05-29T21:22:53;5.30;;;3.80;;
37303;SDS011;23188;51.188;16.374;2023-05-29T21:26:56;5.80;;;3.70;;
37303;SDS011;23188;51.188;16.374;2023-05-29T21:30:59;12.80;;;4.50;;
37303;SDS011;23188;51.188;16.374;2023-05-29T21:35:07;8.10;;;5.00;;
37303;SDS011;23188;51.188;16.374;2023-05-29T21:39:10;7.20;;;4.80;;
37303;SDS011;23188;51.188;16.374;2023-05-29T21:43:14;6.00;;;4.10;;
37303;SDS011;23188;51.188;16.374;2023-05-29T21:47:17;9.00;;;3.60;;
37303;SDS011;23188;51.188;16.374;2023-05-29T21:51:20;16.80;;;4.30;;
37303;SDS011;23188;51.188;16.374;2023-05-29T21:55:31;8.60;;;4.50;;
37303;SDS011;23188;51.188;16.374;2023-05-29T22:04:08;4.30;;;2.40;;
37303;SDS011;23188;51.188;16.374;2023-05-29T22:12:46;5.40;;;3.80;;
37303;SDS011;23188;51.188;16.374;2023-05-29T22:21:57;5.60;;;3.20;;
37303;SDS011;23188;51.188;16.374;2023-05-29T22:26:00;5.60;;;3.60;;
37303;SDS011;23188;51.188;16.374;2023-05-29T22:30:08;6.20;;;4.30;;
37303;SDS011;23188;51.188;16.374;2023-05-29T22:34:13;44.70;;;9.80;;
37303;SDS011;23188;51.188;16.374;2023-05-29T22:38:16;42.60;;;10.80;;
37303;SDS011;23188;51.188;16.374;2023-05-29T22:42:20;37.20;;;8.10;;
37303;SDS011;23188;51.188;16.374;2023-05-29T22:46:23;16.10;;;6.10;;
37303;SDS011;23188;51.188;16.374;2023-05-29T22:50:26;26.60;;;5.40;;
37303;SDS011;23188;51.188;16.374;2023-05-29T22:54:30;9.80;;;4.40;;
37303;SDS011;23188;51.188;16.374;2023-05-29T22:58:34;9.00;;;5.20;;
37303;SDS011;23188;51.188;16.374;2023-05-29T23:02:49;13.10;;;4.80;;
37303;SDS011;23188;51.188;16.374;2023-05-29T23:06:54;10.30;;;5.00;;
37303;SDS011;23188;51.188;16.374;2023-05-29T23:10:58;7.20;;;4.30;;
37303;SDS011;23188;51.188;16.374;2023-05-29T23:15:01;6.50;;;3.50;;
37303;SDS011;23188;51.188;16.374;2023-05-29T23:19:07;7.80;;;4.20;;
37303;SDS011;23188;51.188;16.374;2023-05-29T23:23:10;4.50;;;2.80;;
37303;SDS011;23188;51.188;16.374;2023-05-29T23:27:16;6.60;;;3.10;;
37303;SDS011;23188;51.188;16.374;2023-05-29T23:31:19;8.50;;;4.10;;
37303;SDS011;23188;51.188;16.374;2023-05-29T23:35:22;6.40;;;3.80;;
37303;SDS011;23188;51.188;16.374;2023-05-29T23:39:25;5.30;;;4.40;;
37303;SDS011;23188;51.188;16.374;2023-05-29T23:43:27;7.30;;;3.90;;
37303;SDS011;23188;51.188;16.374;2023-05-29T23:47:30;10.60;;;3.20;;
37303;SDS011;23188;51.188;16.374;2023-05-29T23:51:33;8.60;;;4.00;;
